Time;durP1;ratioP1;P1;durP2;ratioP2;P2;SDS_P1;SDS_P2;PMS_P1;PMS_P2;Temp;Humidity;BMP_temperature;BMP_pressure;BME280_temperature;BME280_humidity;BME280_pressure;Samples;Min_cycle;Max_cycle;Signal;HPM_P1;HPM_P2
2023/04/02 00:01:22;;;;;;;8.90;8.10;;;10.70;99.90;;;;;;4951107;28;20023;-85
2023/04/02 00:03:58;;;;;;;9.05;8.15;;;10.80;99.90;;;;;;4951291;28;20035;-86
2023/04/02 00:06:31;;;;;;;9.60;8.60;;;10.90;99.90;;;;;;4951326;28;20371;-85
2023/04/02 00:09:04;;;;;;;10.23;9.13;;;10.70;99.90;;;;;;4966028;28;20432;-85
2023/04/02 00:11:34;;;;;;;9.50;8.50;;;10.70;99.90;;;;;;4953236;28;20032;-86
2023/04/02 00:14:02;;;;;;;10.98;8.98;;;10.80;99.90;;;;;;4954347;28;20031;-85
2023/04/02 00:16:28;;;;;;;9.73;8.82;;;10.80;99.90;;;;;;4954492;28;20497;-86
2023/04/02 00:18:58;;;;;;;11.15;8.65;;;11.10;99.90;;;;;;4954381;28;20089;-86
2023/04/02 00:21:31;;;;;;;9.77;8.10;;;10.10;99.90;;;;;;4969100;28;20114;-86
2023/04/02 00:23:59;;;;;;;9.25;8.35;;;10.40;99.90;;;;;;4954293;28;20185;-85
2023/04/02 00:26:35;;;;;;;9.90;8.82;;;10.80;99.90;;;;;;4946738;28;20059;-85
2023/04/02 00:29:03;;;;;;;10.10;8.93;;;10.70;99.90;;;;;;4934731;29;20442;-85
2023/04/02 00:31:30;;;;;;;10.18;8.90;;;10.70;99.90;;;;;;4935396;29;20074;-85
2023/04/02 00:33:58;;;;;;;10.32;9.32;;;10.90;99.90;;;;;;4935510;29;20500;-85
2023/04/02 00:36:28;;;;;;;10.50;9.40;;;10.80;99.90;;;;;;4935321;29;20038;-85
2023/04/02 00:38:57;;;;;;;10.98;9.88;;;10.70;99.90;;;;;;4935226;29;20082;-85
2023/04/02 00:41:28;;;;;;;12.30;11.07;;;10.70;99.90;;;;;;4935265;29;20034;-85
2023/04/02 00:43:56;;;;;;;11.05;10.00;;;10.70;99.90;;;;;;4933544;29;20036;-85
2023/04/02 00:46:28;;;;;;;10.70;9.70;;;10.70;99.90;;;;;;4949081;29;20023;-85
2023/04/02 00:49:08;;;;;;;10.38;9.38;;;10.70;99.90;;;;;;4968813;28;20123;-85
2023/04/02 00:52:07;;;;;;;11.00;9.85;;;10.80;99.90;;;;;;4969110;28;20015;-85
2023/04/02 00:54:41;;;;;;;13.13;10.88;;;10.70;99.90;;;;;;4968700;28;20035;-85
2023/04/02 00:57:24;;;;;;;10.55;9.45;;;10.70;99.90;;;;;;4954191;28;20088;-86
2023/04/02 01:00:14;;;;;;;10.40;9.40;;;10.70;99.90;;;;;;4953867;28;20031;-85
2023/04/02 01:02:41;;;;;;;11.52;9.80;;;10.70;99.90;;;;;;4954112;28;20027;-85
2023/04/02 01:05:16;;;;;;;10.13;9.00;;;10.70;99.90;;;;;;4954158;28;20027;-86
2023/04/02 01:07:59;;;;;;;10.13;8.88;;;11.10;99.90;;;;;;4953744;28;20099;-85
2023/04/02 01:10:50;;;;;;;9.93;8.93;;;10.70;99.90;;;;;;4968512;28;20062;-86
2023/04/02 01:13:21;;;;;;;9.77;8.82;;;10.80;99.90;;;;;;4953352;28;20517;-86
2023/04/02 01:15:59;;;;;;;9.85;8.95;;;10.70;99.90;;;;;;4952477;28;20042;-85
2023/04/02 01:18:40;;;;;;;10.15;9.15;;;10.70;99.90;;;;;;4953611;28;20035;-85
2023/04/02 01:21:36;;;;;;;9.90;9.00;;;10.70;99.90;;;;;;4953665;28;20442;-85
2023/04/02 01:24:08;;;;;;;10.98;9.20;;;10.70;99.90;;;;;;4952944;28;20081;-85
2023/04/02 01:27:04;;;;;;;10.95;9.90;;;10.80;99.90;;;;;;4944609;28;20064;-85
2023/04/02 01:29:55;;;;;;;12.05;10.05;;;10.60;99.90;;;;;;4934013;28;20063;-85
2023/04/02 01:32:24;;;;;;;11.10;9.95;;;10.60;99.90;;;;;;4934101;29;20020;-85
2023/04/02 01:34:51;;;;;;;11.18;10.10;;;10.60;99.90;;;;;;4934189;29;20031;-85
2023/04/02 01:37:21;;;;;;;11.40;10.30;;;10.60;99.90;;;;;;4934211;29;20522;-85
2023/04/02 01:40:04;;;;;;;11.95;10.75;;;10.70;99.90;;;;;;4934235;29;20040;-86
2023/04/02 01:42:51;;;;;;;11.30;10.20;;;10.70;99.90;;;;;;4933786;29;20039;-85
2023/04/02 01:45:20;;;;;;;13.77;10.50;;;10.60;99.90;;;;;;4939831;29;20034;-85
2023/04/02 01:47:47;;;;;;;12.20;10.93;;;10.60;99.90;;;;;;4953238;28;20016;-85
2023/04/02 01:50:15;;;;;;;11.32;10.23;;;10.50;99.90;;;;;;4952110;29;20035;-85
2023/04/02 01:52:45;;;;;;;11.93;10.68;;;10.50;99.90;;;;;;4951958;28;20380;-85
2023/04/02 01:55:13;;;;;;;11.75;10.43;;;10.40;99.90;;;;;;4952770;28;20509;-86
2023/04/02 01:57:46;;;;;;;10.93;9.82;;;10.20;99.90;;;;;;4952983;28;20023;-85
2023/04/02 02:00:16;;;;;;;11.32;10.23;;;10.00;99.90;;;;;;4953064;28;20054;-85
2023/04/02 02:02:47;;;;;;;11.05;10.05;;;10.10;99.90;;;;;;4952988;28;20034;-85
2023/04/02 02:05:15;;;;;;;12.52;10.82;;;10.30;99.90;;;;;;4952657;28;20104;-86
2023/04/02 02:07:41;;;;;;;11.18;10.00;;;10.20;99.90;;;;;;4952829;28;20052;-85
2023/04/02 02:10:20;;;;;;;11.35;10.25;;;10.00;99.90;;;;;;4951269;28;20401;-86
2023/04/02 02:12:46;;;;;;;11.82;10.00;;;9.70;99.90;;;;;;4952712;28;20035;-85
2023/04/02 02:15:18;;;;;;;11.40;10.23;;;9.80;99.90;;;;;;4951522;29;20019;-85
2023/04/02 02:17:44;;;;;;;10.57;9.57;;;9.50;99.90;;;;;;4951290;28;20417;-85
2023/04/02 02:20:12;;;;;;;11.25;9.73;;;9.50;99.90;;;;;;4967432;28;20106;-85
2023/04/02 02:22:48;;;;;;;11.07;9.98;;;9.70;99.90;;;;;;4952571;28;20089;-85
2023/04/02 02:25:18;;;;;;;12.25;11.05;;;10.20;99.90;;;;;;4952218;28;20393;-85
2023/04/02 02:28:05;;;;;;;13.00;11.00;;;10.20;99.90;;;;;;4934684;28;20048;-86
2023/04/02 02:30:31;;;;;;;11.93;10.43;;;10.50;99.90;;;;;;4931793;29;20486;-86
2023/04/02 02:33:08;;;;;;;11.48;10.38;;;10.50;99.90;;;;;;4933266;29;20027;-86
2023/04/02 02:35:53;;;;;;;11.52;10.40;;;10.50;99.90;;;;;;4932103;29;20023;-86
2023/04/02 02:38:34;;;;;;;11.40;10.30;;;10.50;99.90;;;;;;4932831;29;20405;-85
2023/04/02 02:41:18;;;;;;;13.15;10.55;;;10.40;99.90;;;;;;4933087;29;20027;-85
2023/04/02 02:44:03;;;;;;;12.77;11.35;;;10.40;99.90;;;;;;4933034;29;20024;-85
2023/04/02 02:46:29;;;;;;;13.43;11.30;;;10.40;99.90;;;;;;4948068;29;20458;-85
2023/04/02 02:48:57;;;;;;;13.18;11.85;;;10.40;99.90;;;;;;4952160;28;20035;-85
2023/04/02 02:51:28;;;;;;;12.45;11.25;;;10.40;99.90;;;;;;4952098;28;20019;-85
2023/04/02 02:54:00;;;;;;;13.13;11.63;;;10.40;99.90;;;;;;4951780;28;20031;-85
2023/04/02 02:56:28;;;;;;;13.45;12.07;;;10.50;99.90;;;;;;4952105;28;20579;-85
2023/04/02 02:58:54;;;;;;;13.10;11.68;;;10.50;99.90;;;;;;4951995;28;20093;-85
2023/04/02 03:01:20;;;;;;;14.20;12.77;;;10.50;99.90;;;;;;4952061;28;20590;-85
2023/04/02 03:03:47;;;;;;;14.02;12.57;;;10.50;99.90;;;;;;4951958;28;20039;-86
2023/04/02 03:06:15;;;;;;;14.60;12.82;;;10.50;99.90;;;;;;4951908;28;20074;-85
2023/04/02 03:08:47;;;;;;;14.75;13.10;;;10.50;99.90;;;;;;4951589;28;20367;-85
2023/04/02 03:11:39;;;;;;;14.32;12.82;;;10.50;99.90;;;;;;4950609;28;20402;-85
2023/04/02 03:14:15;;;;;;;14.93;13.40;;;10.50;99.90;;;;;;4951849;28;20035;-86
2023/04/02 03:16:46;;;;;;;14.50;13.07;;;10.50;99.90;;;;;;4951999;28;20023;-85
2023/04/02 03:19:46;;;;;;;14.25;12.75;;;10.50;99.90;;;;;;4950447;29;20092;-85
2023/04/02 03:22:40;;;;;;;14.10;12.77;;;10.50;99.90;;;;;;4950813;29;20099;-85
2023/04/02 03:25:36;;;;;;;14.73;13.23;;;10.50;99.90;;;;;;4951394;29;20040;-86
2023/04/02 03:28:06;;;;;;;15.60;13.80;;;10.50;99.90;;;;;;5014534;28;20108;-86
2023/04/02 03:30:49;;;;;;;14.50;13.05;;;10.50;99.90;;;;;;4931249;29;20211;-85
2023/04/02 03:33:25;;;;;;;14.52;13.02;;;10.50;99.90;;;;;;4931246;29;20397;-86
2023/04/02 03:36:27;;;;;;;15.68;13.88;;;10.50;99.90;;;;;;4931131;29;20035;-85
2023/04/02 03:39:13;;;;;;;16.08;13.90;;;10.40;99.90;;;;;;4932253;29;20032;-86
2023/04/02 03:41:57;;;;;;;15.10;13.60;;;10.50;99.90;;;;;;4932280;29;20036;-86
2023/04/02 03:44:44;;;;;;;15.32;13.15;;;10.50;99.90;;;;;;4932334;29;20109;-85
2023/04/02 03:47:19;;;;;;;15.10;13.55;;;10.70;99.90;;;;;;4935235;29;20032;-85
2023/04/02 03:50:06;;;;;;;15.30;13.35;;;10.40;99.90;;;;;;4934490;29;20024;-86
2023/04/02 03:52:35;;;;;;;15.30;13.70;;;10.40;99.90;;;;;;4933987;29;20024;-85
2023/04/02 03:55:14;;;;;;;14.40;12.90;;;10.40;99.90;;;;;;4935470;29;20118;-86
2023/04/02 03:57:56;;;;;;;15.75;14.20;;;10.50;99.90;;;;;;4934437;29;20024;-86
2023/04/02 04:00:43;;;;;;;14.48;12.98;;;10.50;99.90;;;;;;4935433;29;20031;-86
2023/04/02 04:03:15;;;;;;;15.50;13.90;;;10.50;99.90;;;;;;4934232;29;20032;-85
2023/04/02 04:05:49;;;;;;;15.02;13.30;;;10.40;99.90;;;;;;4933863;29;20032;-86
2023/04/02 04:08:20;;;;;;;15.38;12.93;;;10.40;99.90;;;;;;4934121;29;20437;-85
2023/04/02 04:10:55;;;;;;;14.85;13.23;;;10.40;99.90;;;;;;4935463;29;20505;-85
2023/04/02 04:13:44;;;;;;;13.48;12.18;;;10.20;99.90;;;;;;4935377;29;20036;-85
2023/04/02 04:16:54;;;;;;;14.60;12.80;;;10.30;99.90;;;;;;4935384;29;20039;-85
2023/04/02 04:19:38;;;;;;;13.68;11.85;;;10.30;99.90;;;;;;5013751;28;20495;-85
2023/04/02 04:22:32;;;;;;;14.10;12.60;;;10.30;99.90;;;;;;5013456;28;20252;-86
2023/04/02 04:25:16;;;;;;;14.30;12.85;;;10.30;99.90;;;;;;5013687;28;20108;-86
2023/04/02 04:28:23;;;;;;;14.05;12.55;;;10.50;99.90;;;;;;5030974;28;20495;-85
2023/04/02 04:30:58;;;;;;;14.13;12.60;;;10.50;99.90;;;;;;5015929;28;20056;-85
2023/04/02 04:33:38;;;;;;;13.88;12.48;;;10.50;99.90;;;;;;5033307;28;20037;-85
2023/04/02 04:36:05;;;;;;;14.60;12.80;;;10.50;99.90;;;;;;5032883;28;20083;-86
2023/04/02 04:38:38;;;;;;;13.27;12.07;;;10.40;99.90;;;;;;5033257;28;20045;-86
2023/04/02 04:41:11;;;;;;;13.60;12.20;;;10.40;99.90;;;;;;5032989;28;20076;-85
2023/04/02 04:44:09;;;;;;;14.27;12.77;;;10.40;99.90;;;;;;5033071;28;20464;-86
2023/04/02 04:46:41;;;;;;;15.40;12.23;;;10.40;99.90;;;;;;5032160;28;20033;-86
2023/04/02 04:49:08;;;;;;;14.05;12.55;;;10.40;99.90;;;;;;5032583;28;20141;-85
2023/04/02 04:52:00;;;;;;;13.55;12.15;;;10.50;99.90;;;;;;5032942;28;20025;-85
2023/04/02 04:54:27;;;;;;;15.13;13.02;;;10.30;99.90;;;;;;4953810;28;20506;-85
2023/04/02 04:57:00;;;;;;;13.52;12.13;;;10.50;99.90;;;;;;4953495;28;20126;-85
2023/04/02 04:59:34;;;;;;;14.32;12.82;;;10.50;99.90;;;;;;4953634;28;20035;-85
2023/04/02 05:02:18;;;;;;;13.52;12.07;;;10.60;99.90;;;;;;4954100;28;20103;-85
2023/04/02 05:04:50;;;;;;;13.88;11.63;;;10.50;99.90;;;;;;4953358;28;20031;-85
2023/04/02 05:07:25;;;;;;;14.00;11.88;;;10.50;99.90;;;;;;4953674;28;20047;-85
2023/04/02 05:09:56;;;;;;;14.40;12.25;;;10.50;99.90;;;;;;4953771;28;20032;-85
2023/04/02 05:12:40;;;;;;;14.20;12.07;;;10.50;99.90;;;;;;4953634;28;20020;-85
2023/04/02 05:15:36;;;;;;;13.43;12.00;;;10.50;99.90;;;;;;4953792;28;20055;-85
2023/04/02 05:18:33;;;;;;;13.63;11.73;;;10.50;99.90;;;;;;4953452;29;20035;-85
2023/04/02 05:21:03;;;;;;;13.00;11.70;;;10.50;99.90;;;;;;5036823;28;20035;-86
2023/04/02 05:23:46;;;;;;;13.15;11.77;;;10.30;99.90;;;;;;4954063;28;20031;-85
2023/04/02 05:26:19;;;;;;;12.23;10.93;;;10.30;99.90;;;;;;4947848;28;20541;-85
2023/04/02 05:28:50;;;;;;;12.50;11.10;;;10.30;99.90;;;;;;4934492;29;20387;-85
2023/04/02 05:31:26;;;;;;;12.40;10.93;;;10.10;99.90;;;;;;4934399;29;20036;-85
2023/04/02 05:33:54;;;;;;;12.38;11.10;;;9.90;99.90;;;;;;4934361;29;20019;-85
2023/04/02 05:36:28;;;;;;;12.95;11.18;;;10.00;99.90;;;;;;4933051;29;20032;-85
2023/04/02 05:38:55;;;;;;;12.77;10.48;;;10.00;99.90;;;;;;4934281;29;20502;-85
2023/04/02 05:41:40;;;;;;;11.70;10.48;;;9.90;99.90;;;;;;4934313;29;20035;-85
2023/04/02 05:44:30;;;;;;;13.05;10.38;;;10.00;99.90;;;;;;4932897;29;20391;-85
2023/04/02 05:47:07;;;;;;;13.25;11.95;;;9.90;99.90;;;;;;4951548;29;20027;-85
2023/04/02 05:49:43;;;;;;;13.43;11.95;;;9.90;99.90;;;;;;4953655;28;20027;-85
2023/04/02 05:52:20;;;;;;;11.68;10.57;;;10.30;99.90;;;;;;5036810;28;20122;-86
2023/04/02 05:54:52;;;;;;;11.73;10.52;;;10.20;99.90;;;;;;4951949;29;20370;-85
2023/04/02 05:57:38;;;;;;;11.52;9.98;;;10.30;99.90;;;;;;4952858;29;20150;-85
2023/04/02 06:00:07;;;;;;;8.82;7.93;;;10.40;99.90;;;;;;4953343;28;20042;-85
2023/04/02 06:03:06;;;;;;;9.82;8.82;;;10.00;99.90;;;;;;4952949;28;20027;-86
2023/04/02 06:05:38;;;;;;;10.50;8.93;;;9.80;99.90;;;;;;4947943;29;20043;-85
2023/04/02 06:08:10;;;;;;;12.95;9.07;;;9.80;99.90;;;;;;4952847;28;20519;-85
2023/04/02 06:10:49;;;;;;;9.98;8.40;;;9.80;99.90;;;;;;4951909;29;20145;-85
2023/04/02 06:13:19;;;;;;;7.90;7.07;;;9.80;99.90;;;;;;4951886;28;20058;-85
2023/04/02 06:15:45;;;;;;;5.53;4.90;;;9.80;99.90;;;;;;4952604;28;20102;-85
2023/04/02 06:18:17;;;;;;;6.97;6.03;;;9.70;99.90;;;;;;4953090;28;20042;-85
2023/04/02 06:20:43;;;;;;;8.23;7.25;;;9.70;99.90;;;;;;4952904;28;20039;-85
2023/04/02 06:23:19;;;;;;;8.95;7.55;;;9.90;99.90;;;;;;4953172;28;20035;-85
2023/04/02 06:26:17;;;;;;;9.27;8.38;;;9.90;99.90;;;;;;4950842;28;20105;-85
2023/04/02 06:29:10;;;;;;;8.40;7.47;;;10.10;99.90;;;;;;4933683;29;20097;-87
2023/04/02 06:31:43;;;;;;;6.65;5.88;;;10.20;99.90;;;;;;4932056;29;20086;-85
2023/04/02 06:34:18;;;;;;;6.10;5.20;;;10.20;99.90;;;;;;4933804;29;20106;-85
2023/04/02 06:36:44;;;;;;;4.95;4.10;;;10.10;99.90;;;;;;4933993;29;20028;-86
2023/04/02 06:39:24;;;;;;;5.95;4.60;;;10.10;99.90;;;;;;4933415;29;20040;-85
2023/04/02 06:42:03;;;;;;;5.95;4.10;;;10.10;99.90;;;;;;4932247;29;20437;-85
2023/04/02 06:44:35;;;;;;;9.98;4.68;;;10.20;99.90;;;;;;4932312;29;20031;-85
2023/04/02 06:47:17;;;;;;;5.18;4.03;;;10.20;99.90;;;;;;4932951;29;20024;-85
2023/04/02 06:49:50;;;;;;;4.80;3.60;;;10.20;99.90;;;;;;4933038;29;20034;-85
2023/04/02 06:52:33;;;;;;;6.03;3.20;;;10.00;99.90;;;;;;4933214;28;20110;-85
2023/04/02 06:54:59;;;;;;;3.35;2.80;;;10.10;99.90;;;;;;4933217;29;20486;-85
2023/04/02 06:57:25;;;;;;;4.32;2.92;;;10.10;99.90;;;;;;4933056;29;20482;-85
2023/04/02 06:59:51;;;;;;;5.57;2.92;;;10.10;99.90;;;;;;4932576;29;20050;-85
2023/04/02 07:02:38;;;;;;;3.67;2.97;;;10.20;99.90;;;;;;4931630;28;20031;-85
2023/04/02 07:05:08;;;;;;;4.60;3.40;;;10.60;99.90;;;;;;4932910;29;20019;-86
2023/04/02 07:07:33;;;;;;;4.72;2.78;;;10.20;99.90;;;;;;4933395;28;20032;-86
2023/04/02 07:09:59;;;;;;;3.65;2.53;;;10.20;99.90;;;;;;4932756;29;20020;-84
2023/04/02 07:12:25;;;;;;;5.40;3.00;;;10.20;99.90;;;;;;4931419;29;20379;-85
2023/04/02 07:14:51;;;;;;;3.85;2.45;;;10.20;99.90;;;;;;4932418;29;20028;-85
2023/04/02 07:17:18;;;;;;;4.43;2.92;;;10.20;99.90;;;;;;4932730;29;20508;-85
2023/04/02 07:19:47;;;;;;;3.03;2.53;;;10.10;99.90;;;;;;4932476;28;20032;-86
2023/04/02 07:22:14;;;;;;;3.42;3.13;;;10.30;99.90;;;;;;4932250;28;20058;-86
2023/04/02 07:24:40;;;;;;;25.50;20.05;;;10.00;99.90;;;;;;4932945;29;20086;-85
2023/04/02 07:27:05;;;;;;;5.15;3.08;;;10.10;99.90;;;;;;4932363;28;20051;-86
2023/04/02 07:29:31;;;;;;;4.82;2.80;;;10.20;99.90;;;;;;4931312;29;20107;-85
2023/04/02 07:31:56;;;;;;;5.13;3.88;;;10.10;99.90;;;;;;4932621;29;20498;-85
2023/04/02 07:34:22;;;;;;;8.95;5.97;;;10.10;99.90;;;;;;4933042;29;20380;-84
2023/04/02 07:36:48;;;;;;;8.05;6.65;;;10.00;99.90;;;;;;4933543;29;20036;-86
2023/04/02 07:39:14;;;;;;;4.82;4.00;;;10.10;99.90;;;;;;4932823;29;20058;-85
2023/04/02 07:41:57;;;;;;;3.92;3.33;;;10.00;99.90;;;;;;4932567;29;20020;-85
2023/04/02 07:44:23;;;;;;;4.82;3.10;;;9.80;99.90;;;;;;4932521;29;20028;-85
2023/04/02 07:46:49;;;;;;;5.18;3.40;;;9.80;99.90;;;;;;4949989;29;20077;-85
2023/04/02 07:49:15;;;;;;;9.55;5.65;;;9.90;99.90;;;;;;4951653;28;20051;-85
2023/04/02 07:51:40;;;;;;;4.05;3.13;;;9.90;99.90;;;;;;4950090;29;20432;-85
2023/04/02 07:54:08;;;;;;;2.63;2.40;;;9.90;99.90;;;;;;4951451;28;20031;-85
2023/04/02 07:56:35;;;;;;;3.40;3.10;;;10.20;99.90;;;;;;4951466;28;20057;-86
2023/04/02 07:59:01;;;;;;;6.28;5.70;;;10.40;99.90;;;;;;4949757;28;20032;-86
2023/04/02 08:01:28;;;;;;;3.38;3.00;;;10.30;99.90;;;;;;4951288;28;20538;-85
2023/04/02 08:03:55;;;;;;;3.13;2.72;;;10.80;99.90;;;;;;4951758;28;20410;-85
2023/04/02 08:06:22;;;;;;;4.20;2.50;;;10.20;99.90;;;;;;4950479;28;20030;-85
2023/04/02 08:08:48;;;;;;;2.85;2.05;;;10.20;99.90;;;;;;4951728;28;20027;-85
2023/04/02 08:11:14;;;;;;;4.13;3.72;;;10.30;99.90;;;;;;4951639;28;20034;-85
2023/04/02 08:13:40;;;;;;;2.83;2.35;;;10.40;99.90;;;;;;4951356;28;20038;-85
2023/04/02 08:16:06;;;;;;;4.10;3.70;;;10.50;99.90;;;;;;4951609;28;20024;-85
2023/04/02 08:18:33;;;;;;;2.88;2.58;;;10.60;99.90;;;;;;4951416;28;20038;-85
2023/04/02 08:20:59;;;;;;;3.20;2.55;;;10.50;99.90;;;;;;4950840;28;20137;-86
2023/04/02 08:23:25;;;;;;;4.28;2.97;;;10.80;99.90;;;;;;4951307;28;20157;-85
2023/04/02 08:25:52;;;;;;;3.15;2.58;;;11.10;99.90;;;;;;4948021;28;20052;-86
2023/04/02 08:28:19;;;;;;;2.85;2.65;;;11.10;99.90;;;;;;4932420;29;20046;-86
2023/04/02 08:30:47;;;;;;;3.08;1.92;;;11.20;99.90;;;;;;4932148;29;20102;-86
2023/04/02 08:33:13;;;;;;;2.38;2.10;;;10.70;99.90;;;;;;4933546;29;20032;-85
2023/04/02 08:35:39;;;;;;;2.40;2.20;;;10.60;99.90;;;;;;4934987;29;20118;-85
2023/04/02 08:38:05;;;;;;;2.80;2.50;;;11.30;99.90;;;;;;4935460;29;20058;-85
2023/04/02 08:40:42;;;;;;;2.55;2.35;;;11.10;99.90;;;;;;4933993;29;20070;-86
2023/04/02 08:43:37;;;;;;;2.85;2.55;;;11.10;99.90;;;;;;4933812;29;20453;-86
2023/04/02 08:46:28;;;;;;;2.05;1.60;;;10.90;99.90;;;;;;4946499;29;20035;-86
2023/04/02 08:48:57;;;;;;;2.60;1.38;;;11.00;99.90;;;;;;4952887;28;20361;-86
2023/04/02 08:51:27;;;;;;;1.30;1.10;;;11.40;99.90;;;;;;4953089;28;20485;-85
2023/04/02 08:53:57;;;;;;;1.63;1.35;;;11.30;99.90;;;;;;4952946;28;20424;-86
2023/04/02 08:56:50;;;;;;;1.90;1.40;;;11.10;99.90;;;;;;4953512;28;20504;-85
2023/04/02 08:59:33;;;;;;;2.92;1.45;;;11.10;99.90;;;;;;4953920;28;20032;-85
2023/04/02 09:02:10;;;;;;;1.92;1.70;;;11.40;99.90;;;;;;4954247;28;20027;-85
2023/04/02 09:04:37;;;;;;;1.80;1.50;;;11.80;99.90;;;;;;4953864;28;20031;-85
2023/04/02 09:07:03;;;;;;;2.10;1.70;;;11.90;99.90;;;;;;4953951;28;20047;-85
2023/04/02 09:09:35;;;;;;;3.00;1.88;;;11.50;99.90;;;;;;4953783;28;20106;-85
2023/04/02 09:12:03;;;;;;;3.13;1.83;;;11.50;99.90;;;;;;4952126;28;20027;-85
2023/04/02 09:14:50;;;;;;;3.85;2.20;;;11.60;99.90;;;;;;4952719;29;20030;-85
2023/04/02 09:17:23;;;;;;;2.70;1.88;;;11.70;99.90;;;;;;4953188;28;20490;-85
2023/04/02 09:20:04;;;;;;;2.20;2.00;;;11.80;99.90;;;;;;4953589;28;20039;-85
2023/04/02 09:22:32;;;;;;;2.97;2.08;;;11.70;99.90;;;;;;4953747;28;20026;-86
2023/04/02 09:25:00;;;;;;;2.22;1.60;;;11.90;99.90;;;;;;4953448;28;20039;-85
2023/04/02 09:27:31;;;;;;;3.78;1.75;;;11.70;99.90;;;;;;4938306;28;20406;-86
2023/04/02 09:30:20;;;;;;;3.85;2.00;;;11.50;99.90;;;;;;4933278;29;20480;-86
2023/04/02 09:32:52;;;;;;;2.38;1.70;;;11.40;99.90;;;;;;4933049;29;20024;-85
2023/04/02 09:35:24;;;;;;;20.75;11.65;;;12.30;99.90;;;;;;4934442;29;20038;-85
2023/04/02 09:38:15;;;;;;;17.13;11.45;;;12.40;99.90;;;;;;4934124;29;20031;-86
2023/04/02 09:40:44;;;;;;;5.18;3.63;;;12.40;99.90;;;;;;4933748;29;20397;-86
2023/04/02 09:43:31;;;;;;;10.35;6.60;;;13.00;99.90;;;;;;4933589;29;20098;-85
2023/04/02 09:45:57;;;;;;;4.68;2.95;;;13.50;99.90;;;;;;4944742;29;20042;-85
2023/04/02 09:48:36;;;;;;;2.05;1.20;;;13.60;99.90;;;;;;4953018;28;20031;-86
2023/04/02 09:51:15;;;;;;;5.60;4.10;;;13.70;99.90;;;;;;4953047;28;20020;-86
2023/04/02 09:53:46;;;;;;;5.65;4.93;;;13.90;99.90;;;;;;4952573;28;20401;-85
2023/04/02 09:56:23;;;;;;;4.80;4.30;;;13.90;99.90;;;;;;4953050;28;20036;-85
2023/04/02 09:59:11;;;;;;;1.17;1.00;;;13.60;99.90;;;;;;4952944;28;20150;-86
2023/04/02 10:01:39;;;;;;;2.20;2.00;;;13.40;99.90;;;;;;4951496;28;20035;-86
2023/04/02 10:04:26;;;;;;;4.65;4.07;;;14.40;99.90;;;;;;4952980;28;20028;-86
2023/04/02 10:06:56;;;;;;;4.70;4.15;;;15.00;99.90;;;;;;4951433;28;20494;-86
2023/04/02 10:09:31;;;;;;;4.88;4.20;;;14.20;99.90;;;;;;4952486;28;20023;-86
2023/04/02 10:11:59;;;;;;;3.78;2.53;;;13.70;99.90;;;;;;4952650;28;20400;-86
2023/04/02 10:14:33;;;;;;;6.55;5.32;;;12.90;99.90;;;;;;4951446;28;20055;-85
2023/04/02 10:17:23;;;;;;;6.00;5.13;;;11.80;99.90;;;;;;4952728;28;20386;-85
2023/04/02 10:19:53;;;;;;;3.75;3.08;;;11.70;99.90;;;;;;4952079;29;20387;-85
2023/04/02 10:22:21;;;;;;;3.00;2.58;;;11.60;99.90;;;;;;4952370;28;20038;-85
2023/04/02 10:24:48;;;;;;;3.50;2.90;;;11.60;99.90;;;;;;4952592;28;20080;-85
2023/04/02 10:27:24;;;;;;;2.78;2.50;;;11.80;99.90;;;;;;4938683;28;20047;-85
2023/04/02 10:29:53;;;;;;;3.72;2.75;;;11.70;99.90;;;;;;4933328;29;20103;-86
2023/04/02 10:32:32;;;;;;;1.50;1.30;;;11.80;99.90;;;;;;4932125;29;20036;-86
2023/04/02 10:35:07;;;;;;;2.00;1.80;;;11.70;99.90;;;;;;4931993;29;20114;-85
2023/04/02 10:37:44;;;;;;;2.42;2.22;;;12.10;99.90;;;;;;4932971;29;20036;-86
2023/04/02 10:40:23;;;;;;;2.15;1.30;;;12.00;99.90;;;;;;4933180;29;20031;-85
2023/04/02 10:43:20;;;;;;;2.15;1.95;;;12.30;99.90;;;;;;4933212;29;20478;-86
2023/04/02 10:45:55;;;;;;;5.97;5.40;;;12.40;99.90;;;;;;5010712;28;20038;-86
2023/04/02 10:48:20;;;;;;;4.72;3.58;;;12.70;99.90;;;;;;5011214;28;20030;-85
2023/04/02 10:51:16;;;;;;;1.00;0.90;;;12.90;99.90;;;;;;5010972;28;20544;-85
2023/04/02 10:53:55;;;;;;;1.48;1.05;;;12.90;99.90;;;;;;5011054;28;20530;-86
2023/04/02 10:56:23;;;;;;;2.92;2.53;;;12.90;99.90;;;;;;5010165;28;20604;-86
2023/04/02 10:58:58;;;;;;;1.55;1.35;;;13.00;99.90;;;;;;5011042;28;20064;-85
2023/04/02 11:01:28;;;;;;;1.33;0.60;;;13.10;99.90;;;;;;5011141;28;20059;-86
2023/04/02 11:04:13;;;;;;;2.75;2.25;;;12.90;99.90;;;;;;5027300;28;20033;-85
2023/04/02 11:07:06;;;;;;;0.65;0.63;;;12.60;99.90;;;;;;5010487;28;20038;-86
2023/04/02 11:09:36;;;;;;;3.42;2.50;;;12.30;99.90;;;;;;5006454;28;20038;-86
2023/04/02 11:12:05;;;;;;;3.50;2.40;;;12.30;99.90;;;;;;5027443;28;20034;-85
2023/04/02 11:14:31;;;;;;;4.70;3.05;;;12.40;99.90;;;;;;5010700;28;20025;-85
2023/04/02 11:17:01;;;;;;;22.92;12.68;;;12.10;99.90;;;;;;5010784;28;20040;-85
2023/04/02 11:19:35;;;;;;;12.48;6.75;;;12.00;99.90;;;;;;5010676;28;20079;-85
2023/04/02 11:22:01;;;;;;;5.88;4.20;;;11.80;99.90;;;;;;4975762;28;20161;-86
2023/04/02 11:24:32;;;;;;;2.75;2.40;;;12.00;99.90;;;;;;4932606;28;20035;-86
2023/04/02 11:27:23;;;;;;;1.90;1.70;;;12.00;99.90;;;;;;4932458;28;20066;-85
2023/04/02 11:29:50;;;;;;;1.92;1.33;;;12.30;99.90;;;;;;4932598;29;20028;-85
2023/04/02 11:32:26;;;;;;;1.27;1.02;;;12.30;99.90;;;;;;4932533;29;20028;-86
2023/04/02 11:34:54;;;;;;;2.42;1.30;;;12.40;99.90;;;;;;4932251;29;20114;-86
2023/04/02 11:37:38;;;;;;;1.30;1.20;;;12.40;99.90;;;;;;4932530;29;20020;-86
2023/04/02 11:40:10;;;;;;;1.10;1.00;;;12.30;99.90;;;;;;4932453;29;20062;-86
2023/04/02 11:42:40;;;;;;;1.10;1.00;;;12.30;99.90;;;;;;4932472;29;20039;-85
2023/04/02 11:45:27;;;;;;;1.60;0.90;;;12.20;99.90;;;;;;4936639;29;20023;-85
2023/04/02 11:47:58;;;;;;;1.05;0.90;;;12.40;99.90;;;;;;4951513;28;20031;-86
2023/04/02 11:50:31;;;;;;;1.20;0.93;;;12.60;99.90;;;;;;4951165;28;20023;-85
2023/04/02 11:53:01;;;;;;;3.67;1.10;;;12.40;99.90;;;;;;4951385;28;20060;-85
2023/04/02 11:55:30;;;;;;;1.25;1.15;;;12.20;99.90;;;;;;4950260;28;20444;-86
2023/04/02 11:58:31;;;;;;;1.10;1.10;;;12.10;99.90;;;;;;4950034;29;20452;-85
2023/04/02 12:01:18;;;;;;;1.48;1.00;;;12.00;99.90;;;;;;4951218;28;20390;-85
2023/04/02 12:04:08;;;;;;;1.42;1.10;;;11.70;99.90;;;;;;4950903;28;20028;-85
2023/04/02 12:06:45;;;;;;;1.10;1.00;;;11.80;99.90;;;;;;4951828;28;20023;-86
2023/04/02 12:09:44;;;;;;;1.00;0.90;;;11.80;99.90;;;;;;4954661;28;20039;-85
2023/04/02 12:12:37;;;;;;;1.52;0.80;;;11.80;99.90;;;;;;4954574;28;20460;-86
2023/04/02 12:15:07;;;;;;;0.85;0.80;;;11.70;99.90;;;;;;4954119;28;20042;-86
2023/04/02 12:17:35;;;;;;;1.10;0.88;;;11.90;99.90;;;;;;4954366;28;20497;-86
2023/04/02 12:20:21;;;;;;;1.10;0.85;;;11.90;99.90;;;;;;4954103;28;20126;-85
2023/04/02 12:22:50;;;;;;;1.38;1.00;;;12.00;99.90;;;;;;4954501;28;20082;-85
2023/04/02 12:25:39;;;;;;;1.20;1.00;;;12.20;99.90;;;;;;4954556;28;20035;-86
2023/04/02 12:28:18;;;;;;;1.20;1.00;;;12.10;99.90;;;;;;4954446;29;20078;-86
2023/04/02 12:30:46;;;;;;;1.40;1.10;;;12.10;99.90;;;;;;4954344;28;20028;-84
2023/04/02 12:33:18;;;;;;;1.90;1.10;;;12.10;99.90;;;;;;4953939;28;20035;-86
2023/04/02 12:35:46;;;;;;;1.40;1.30;;;12.20;99.90;;;;;;4954108;28;20089;-86
2023/04/02 12:38:45;;;;;;;2.00;1.20;;;12.30;99.90;;;;;;4954498;28;20400;-86
2023/04/02 12:41:28;;;;;;;1.58;1.42;;;12.10;99.90;;;;;;4933038;28;20537;-82
2023/04/02 12:44:10;;;;;;;1.20;1.00;;;12.00;99.90;;;;;;4933041;28;20035;-86
2023/04/02 12:46:38;;;;;;;1.80;1.08;;;11.80;99.90;;;;;;4932852;28;20077;-86
2023/04/02 12:49:25;;;;;;;1.63;1.50;;;11.80;99.90;;;;;;4932566;29;20039;-85
2023/04/02 12:51:51;;;;;;;1.30;1.13;;;11.40;99.90;;;;;;4932210;29;20110;-85
2023/04/02 12:54:19;;;;;;;2.42;2.08;;;11.60;99.90;;;;;;4932776;28;20047;-85
2023/04/02 12:56:45;;;;;;;9.88;8.23;;;11.30;99.90;;;;;;4932567;28;20482;-85
2023/04/02 12:59:34;;;;;;;2.83;1.98;;;11.60;99.90;;;;;;4932525;29;20048;-85
2023/04/02 13:02:14;;;;;;;2.50;2.28;;;11.60;99.90;;;;;;4932319;28;20066;-85
2023/04/02 13:04:55;;;;;;;2.92;1.90;;;11.90;99.90;;;;;;4932600;28;20044;-85
2023/04/02 13:07:24;;;;;;;2.75;1.67;;;11.80;99.90;;;;;;4932664;29;20106;-85
2023/04/02 13:09:56;;;;;;;2.22;2.03;;;11.90;99.90;;;;;;4932779;28;20028;-85
2023/04/02 13:12:31;;;;;;;2.10;1.45;;;11.90;99.90;;;;;;4932461;28;20032;-85
2023/04/02 13:14:58;;;;;;;1.65;1.40;;;11.80;99.90;;;;;;4932726;28;20038;-85
2023/04/02 13:17:43;;;;;;;2.60;2.40;;;11.90;99.90;;;;;;4939158;28;20038;-85
2023/04/02 13:20:34;;;;;;;2.67;2.35;;;12.10;99.90;;;;;;4953303;28;20039;-86
2023/04/02 13:23:20;;;;;;;2.80;2.15;;;12.40;99.90;;;;;;4954102;28;20104;-85